Sunday, July 5, 2015, 12:05 AM EDT

KUNV, State College, University Park Airport

Location: State College, PA, United States Lat: 40.85
Local Time: 12:05 AM EDT ( 4:05 GMT) Lon: -77.85
Time Zone: US/Eastern Elev: 1240 ft

Show me the last for .
Show Decoded

2015-07-04 23:15 METAR KUNV 050315Z AUTO 00000KT 5SM BR BKN045 OVC070 17/17 A3007 RMK AO2
                 T01740170 =
2015-07-04 22:55 METAR KUNV 050255Z AUTO 00000KT 3SM BR SCT041 BKN047 OVC060 18/17 A3006 RMK AO2
                 T01800171 =
2015-07-04 22:35 METAR KUNV 050235Z AUTO 00000KT 10SM SCT020 BKN050 OVC060 18/17 A3005 RMK AO2
                 T01810170 =
2015-07-04 22:15 METAR KUNV 050215Z AUTO 00000KT 10SM BKN050 BKN060 18/17 A3004 RMK AO2 T01770166
                 =
2015-07-04 20:53 METAR KUNV 050053Z 08003KT 10SM SCT085 18/17 A3002 =
2015-07-04 19:53 METAR KUNV 042353Z 00000KT 10SM SCT070 SCT100 20/17 A2999 =
2015-07-04 18:53 METAR KUNV 042253Z 00000KT 10SM SCT015 SCT100 21/17 A2999 =
2015-07-04 17:53 METAR KUNV 042153Z 10003KT 10SM OVC015 20/17 A2998 =
2015-07-04 16:53 METAR KUNV 042053Z 10003KT 10SM OVC010 20/17 A2997 =
2015-07-04 15:53 METAR KUNV 041953Z 00000KT 4SM BR OVC010 19/17 A2998 =
2015-07-04 14:53 METAR KUNV 041853Z 00000KT 3SM BR SCT006 OVC015 18/17 A2998 =
2015-07-04 13:53 METAR KUNV 041753Z 00000KT 2SM BR OVC009 17/17 A2998 =
2015-07-04 12:53 METAR KUNV 041653Z 00000KT 3SM BR SCT006 OVC015 18/17 A2996 =
2015-07-04 11:53 METAR KUNV 041553Z 00000KT 2SM BR SCT004 OVC015 17/16 A2996 =
2015-07-04 10:53 METAR KUNV 041453Z 05005KT 2SM -RA BR SCT002 OVC015 17/16 A2997 =
2015-07-04 09:53 METAR KUNV 041353Z 00000KT 2SM -RA BR OVC017 17/16 A2995 =
2015-07-04 08:53 METAR KUNV 041253Z 00000KT 2SM RA BR OVC017 17/16 A2994 =
2015-07-04 07:53 METAR KUNV 041153Z 00000KT 2SM -RA BR OVC018 17/16 A2992 =
2015-07-04 06:53 METAR KUNV 041053Z 00000KT 2SM RA BR OVC020 17/16 A2992 =
2015-07-04 05:53 METAR KUNV 040953Z 00000KT 4SM -RA BR SCT020 OVC027 17/16 A2991 =
2015-07-04 05:35 METAR KUNV 040935Z AUTO 00000KT 7SM DZ SCT020 OVC029 17/16 A2991 RMK AO2 P0002
                 T01700160 =
2015-07-04 04:55 METAR KUNV 040855Z AUTO 20003KT 7SM RA SCT018 OVC031 17/16 A2991 RMK AO2 P0001
                 60001 T01730161 =
2015-07-04 04:35 METAR KUNV 040835Z AUTO 20005KT 5SM -RA BKN016 OVC021 18/17 A2992 RMK AO2 P0003
                 T01750167 =
2015-07-04 04:15 METAR KUNV 040815Z AUTO 00000KT 5SM -RA SCT015 OVC022 18/17 A2992 RMK AO2 P0001
                 T01780172 =
2015-07-04 03:35 METAR KUNV 040735Z AUTO 00000KT 2 1/2SM -RA SCT013 BKN018 OVC038 18/17 A2992 RMK
                 AO2 LTG DSNT SW P0007 T01760173 =
2015-07-04 03:15 METAR KUNV 040715Z AUTO 00000KT 1 3/4SM RA BKN012 BKN017 OVC023 18/18 A2992 RMK
                 AO2 P0004 T01770175 =
2015-07-04 02:55 METAR KUNV 040655Z AUTO 00000KT 1 3/4SM RA OVC014 18/18 A2993 RMK AO2 T01780175
                 =
2015-07-04 02:35 METAR KUNV 040635Z AUTO 00000KT 2SM RA BKN016 BKN021 OVC029 18/18 A2993 RMK AO2
                 P0009 T01800177 =
2015-07-04 02:15 METAR KUNV 040615Z AUTO 00000KT 2SM RA SCT012 BKN026 OVC039 18/18 A2994 RMK AO2
                 P0005 T01800176 =
2015-07-04 01:55 METAR KUNV 040555Z AUTO 00000KT 1 3/4SM RA SCT014 BKN022 OVC028 18/18 A2994 RMK
                 AO2 P0001 60001 T01800177 10217 20180 =
2015-07-04 01:35 METAR KUNV 040535Z AUTO 00000KT 1 1/4SM +RA SCT012 BKN020 OVC036 18/18 A2995 RMK
                 AO2 P0007 T01810178 =
2015-07-04 01:15 METAR KUNV 040515Z AUTO 00000KT 2 1/2SM -RA SCT019 SCT030 OVC049 18/18 A2995 RMK
                 AO2 P0002 T01810176 =
2015-07-04 00:55 METAR KUNV 040455Z AUTO 00000KT 3SM -RA SCT024 SCT031 OVC049 18/18 A2995 RMK AO2
                 T01830177 =
2015-07-04 00:35 METAR KUNV 040435Z AUTO 00000KT 3SM RA SCT022 BKN033 OVC055 19/18 A2995 RMK AO2
                 P0007 T01850177 =
2015-07-04 00:15 METAR KUNV 040415Z AUTO 00000KT 4SM RA SCT024 BKN034 OVC055 19/18 A2996 RMK AO2
                 P0004 T01910178 =

Support USWX by starting your Amazon purchase here.